sensor_id;sensor_type;location;lat;lon;timestamp;P1;durP1;ratioP1;P2;durP2;ratioP2
16352;SDS011;8286;51.274;9.542;2023-08-20T00:02:22;8.23;;;4.63;;
16352;SDS011;8286;51.274;9.542;2023-08-20T00:04:49;8.68;;;5.20;;
16352;SDS011;8286;51.274;9.542;2023-08-20T00:07:17;8.15;;;4.63;;
16352;SDS011;8286;51.274;9.542;2023-08-20T00:09:44;10.40;;;4.53;;
16352;SDS011;8286;51.274;9.542;2023-08-20T00:12:11;4.85;;;4.40;;
16352;SDS011;8286;51.274;9.542;2023-08-20T00:14:54;6.90;;;4.40;;
16352;SDS011;8286;51.274;9.542;2023-08-20T00:17:23;5.00;;;4.15;;
16352;SDS011;8286;51.274;9.542;2023-08-20T00:19:52;6.82;;;5.03;;
16352;SDS011;8286;51.274;9.542;2023-08-20T00:22:19;9.40;;;4.55;;
16352;SDS011;8286;51.274;9.542;2023-08-20T00:24:48;5.93;;;4.15;;
16352;SDS011;8286;51.274;9.542;2023-08-20T00:27:16;7.22;;;4.30;;
16352;SDS011;8286;51.274;9.542;2023-08-20T00:29:43;4.85;;;4.38;;
16352;SDS011;8286;51.274;9.542;2023-08-20T00:32:09;8.05;;;5.10;;
16352;SDS011;8286;51.274;9.542;2023-08-20T00:34:36;5.10;;;4.10;;
16352;SDS011;8286;51.274;9.542;2023-08-20T00:37:02;5.05;;;4.05;;
16352;SDS011;8286;51.274;9.542;2023-08-20T00:39:29;5.20;;;4.32;;
16352;SDS011;8286;51.274;9.542;2023-08-20T00:41:56;5.10;;;4.60;;
16352;SDS011;8286;51.274;9.542;2023-08-20T00:44:25;5.50;;;5.00;;
16352;SDS011;8286;51.274;9.542;2023-08-20T00:46:51;7.03;;;5.30;;
16352;SDS011;8286;51.274;9.542;2023-08-20T00:49:19;7.78;;;5.72;;
16352;SDS011;8286;51.274;9.542;2023-08-20T00:51:45;9.80;;;6.13;;
16352;SDS011;8286;51.274;9.542;2023-08-20T00:54:12;8.15;;;5.40;;
16352;SDS011;8286;51.274;9.542;2023-08-20T00:56:39;9.20;;;5.28;;
16352;SDS011;8286;51.274;9.542;2023-08-20T00:59:05;8.50;;;5.13;;
16352;SDS011;8286;51.274;9.542;2023-08-20T01:01:33;12.48;;;5.22;;
16352;SDS011;8286;51.274;9.542;2023-08-20T01:03:59;8.68;;;5.13;;
16352;SDS011;8286;51.274;9.542;2023-08-20T01:06:27;9.35;;;5.50;;
16352;SDS011;8286;51.274;9.542;2023-08-20T01:09:01;7.85;;;5.82;;
16352;SDS011;8286;51.274;9.542;2023-08-20T01:11:33;8.52;;;5.28;;
16352;SDS011;8286;51.274;9.542;2023-08-20T01:14:01;9.35;;;5.40;;
16352;SDS011;8286;51.274;9.542;2023-08-20T01:16:28;10.18;;;6.35;;
16352;SDS011;8286;51.274;9.542;2023-08-20T01:18:56;9.18;;;5.43;;
16352;SDS011;8286;51.274;9.542;2023-08-20T01:21:23;8.68;;;5.20;;
16352;SDS011;8286;51.274;9.542;2023-08-20T01:24:05;10.90;;;5.68;;
16352;SDS011;8286;51.274;9.542;2023-08-20T01:26:43;13.77;;;6.32;;
16352;SDS011;8286;51.274;9.542;2023-08-20T01:29:24;12.23;;;5.95;;
16352;SDS011;8286;51.274;9.542;2023-08-20T01:31:51;10.18;;;6.28;;
16352;SDS011;8286;51.274;9.542;2023-08-20T01:34:19;8.90;;;5.95;;
16352;SDS011;8286;51.274;9.542;2023-08-20T01:36:47;7.47;;;5.22;;
16352;SDS011;8286;51.274;9.542;2023-08-20T01:39:13;8.07;;;5.82;;
16352;SDS011;8286;51.274;9.542;2023-08-20T01:41:40;9.40;;;5.68;;
16352;SDS011;8286;51.274;9.542;2023-08-20T01:44:07;9.45;;;5.38;;
16352;SDS011;8286;51.274;9.542;2023-08-20T01:46:34;6.70;;;5.50;;
16352;SDS011;8286;51.274;9.542;2023-08-20T01:49:01;7.47;;;5.45;;
16352;SDS011;8286;51.274;9.542;2023-08-20T01:51:28;11.48;;;6.13;;
16352;SDS011;8286;51.274;9.542;2023-08-20T01:53:55;10.48;;;6.03;;
16352;SDS011;8286;51.274;9.542;2023-08-20T01:56:21;10.23;;;5.93;;
16352;SDS011;8286;51.274;9.542;2023-08-20T01:58:48;8.80;;;5.75;;
16352;SDS011;8286;51.274;9.542;2023-08-20T02:01:14;8.98;;;5.60;;
16352;SDS011;8286;51.274;9.542;2023-08-20T02:03:42;15.30;;;6.68;;
16352;SDS011;8286;51.274;9.542;2023-08-20T02:06:08;8.55;;;6.43;;
16352;SDS011;8286;51.274;9.542;2023-08-20T02:08:35;12.25;;;6.47;;
16352;SDS011;8286;51.274;9.542;2023-08-20T02:11:02;12.82;;;6.63;;
16352;SDS011;8286;51.274;9.542;2023-08-20T02:13:29;11.68;;;7.25;;
16352;SDS011;8286;51.274;9.542;2023-08-20T02:15:59;8.57;;;6.22;;
16352;SDS011;8286;51.274;9.542;2023-08-20T02:18:26;11.02;;;7.00;;
16352;SDS011;8286;51.274;9.542;2023-08-20T02:20:54;9.45;;;6.22;;
16352;SDS011;8286;51.274;9.542;2023-08-20T02:23:21;7.65;;;6.32;;
16352;SDS011;8286;51.274;9.542;2023-08-20T02:25:47;11.45;;;7.38;;
16352;SDS011;8286;51.274;9.542;2023-08-20T02:28:14;11.45;;;6.90;;
16352;SDS011;8286;51.274;9.542;2023-08-20T02:30:41;10.13;;;6.75;;
16352;SDS011;8286;51.274;9.542;2023-08-20T02:33:08;9.50;;;7.63;;
16352;SDS011;8286;51.274;9.542;2023-08-20T02:35:35;10.70;;;7.45;;
16352;SDS011;8286;51.274;9.542;2023-08-20T02:38:03;14.20;;;7.78;;
16352;SDS011;8286;51.274;9.542;2023-08-20T02:40:30;10.32;;;7.57;;
16352;SDS011;8286;51.274;9.542;2023-08-20T02:42:56;9.15;;;6.90;;
16352;SDS011;8286;51.274;9.542;2023-08-20T02:45:23;10.30;;;7.70;;
16352;SDS011;8286;51.274;9.542;2023-08-20T02:47:49;12.10;;;8.43;;
16352;SDS011;8286;51.274;9.542;2023-08-20T02:50:16;14.63;;;8.85;;
16352;SDS011;8286;51.274;9.542;2023-08-20T02:52:42;13.95;;;8.93;;
16352;SDS011;8286;51.274;9.542;2023-08-20T02:55:10;9.75;;;8.75;;
16352;SDS011;8286;51.274;9.542;2023-08-20T02:57:37;12.63;;;8.50;;
16352;SDS011;8286;51.274;9.542;2023-08-20T03:00:04;13.38;;;9.07;;
16352;SDS011;8286;51.274;9.542;2023-08-20T03:02:35;13.57;;;9.23;;
16352;SDS011;8286;51.274;9.542;2023-08-20T03:05:01;11.55;;;9.07;;
16352;SDS011;8286;51.274;9.542;2023-08-20T03:07:30;15.38;;;9.30;;
16352;SDS011;8286;51.274;9.542;2023-08-20T03:09:57;16.50;;;8.43;;
16352;SDS011;8286;51.274;9.542;2023-08-20T03:12:25;19.85;;;8.57;;
16352;SDS011;8286;51.274;9.542;2023-08-20T03:14:51;13.80;;;9.35;;
16352;SDS011;8286;51.274;9.542;2023-08-20T03:17:18;10.98;;;9.15;;
16352;SDS011;8286;51.274;9.542;2023-08-20T03:19:53;15.95;;;9.35;;
16352;SDS011;8286;51.274;9.542;2023-08-20T03:22:20;12.82;;;9.25;;
16352;SDS011;8286;51.274;9.542;2023-08-20T03:24:47;14.27;;;9.23;;
16352;SDS011;8286;51.274;9.542;2023-08-20T03:27:14;13.27;;;8.93;;
16352;SDS011;8286;51.274;9.542;2023-08-20T03:29:41;15.77;;;8.82;;
16352;SDS011;8286;51.274;9.542;2023-08-20T03:32:08;12.73;;;8.65;;
16352;SDS011;8286;51.274;9.542;2023-08-20T03:34:35;12.48;;;9.00;;
16352;SDS011;8286;51.274;9.542;2023-08-20T03:37:01;23.65;;;10.32;;
16352;SDS011;8286;51.274;9.542;2023-08-20T03:39:28;12.60;;;8.68;;
16352;SDS011;8286;51.274;9.542;2023-08-20T03:41:56;14.27;;;9.25;;
16352;SDS011;8286;51.274;9.542;2023-08-20T03:44:22;16.15;;;9.13;;
16352;SDS011;8286;51.274;9.542;2023-08-20T03:46:50;10.85;;;8.45;;
16352;SDS011;8286;51.274;9.542;2023-08-20T03:49:17;11.82;;;8.52;;
16352;SDS011;8286;51.274;9.542;2023-08-20T03:51:43;14.43;;;8.10;;
16352;SDS011;8286;51.274;9.542;2023-08-20T03:54:10;16.38;;;9.50;;
16352;SDS011;8286;51.274;9.542;2023-08-20T03:56:36;12.60;;;8.77;;
16352;SDS011;8286;51.274;9.542;2023-08-20T03:59:03;14.25;;;10.02;;
16352;SDS011;8286;51.274;9.542;2023-08-20T04:01:30;13.85;;;9.52;;
16352;SDS011;8286;51.274;9.542;2023-08-20T04:03:58;12.05;;;9.05;;
16352;SDS011;8286;51.274;9.542;2023-08-20T04:06:24;13.82;;;8.70;;
16352;SDS011;8286;51.274;9.542;2023-08-20T04:08:51;11.88;;;8.32;;
16352;SDS011;8286;51.274;9.542;2023-08-20T04:11:17;12.00;;;8.85;;
16352;SDS011;8286;51.274;9.542;2023-08-20T04:13:44;13.07;;;8.95;;
16352;SDS011;8286;51.274;9.542;2023-08-20T04:16:11;13.10;;;8.10;;
16352;SDS011;8286;51.274;9.542;2023-08-20T04:18:37;11.30;;;7.68;;
16352;SDS011;8286;51.274;9.542;2023-08-20T04:21:05;10.88;;;8.50;;
16352;SDS011;8286;51.274;9.542;2023-08-20T04:23:33;11.98;;;8.95;;
16352;SDS011;8286;51.274;9.542;2023-08-20T04:25:59;10.15;;;8.43;;
16352;SDS011;8286;51.274;9.542;2023-08-20T04:28:26;9.23;;;8.25;;
16352;SDS011;8286;51.274;9.542;2023-08-20T04:30:53;13.32;;;7.97;;
16352;SDS011;8286;51.274;9.542;2023-08-20T04:33:20;11.35;;;9.20;;
16352;SDS011;8286;51.274;9.542;2023-08-20T04:35:48;9.93;;;8.20;;
16352;SDS011;8286;51.274;9.542;2023-08-20T04:38:16;14.00;;;8.20;;
16352;SDS011;8286;51.274;9.542;2023-08-20T04:40:45;19.33;;;9.73;;
16352;SDS011;8286;51.274;9.542;2023-08-20T04:43:12;13.10;;;8.30;;
16352;SDS011;8286;51.274;9.542;2023-08-20T04:45:39;13.45;;;8.30;;
16352;SDS011;8286;51.274;9.542;2023-08-20T04:48:05;11.68;;;8.48;;
16352;SDS011;8286;51.274;9.542;2023-08-20T04:50:32;14.25;;;9.95;;
16352;SDS011;8286;51.274;9.542;2023-08-20T04:52:58;13.45;;;9.15;;
16352;SDS011;8286;51.274;9.542;2023-08-20T04:55:27;14.05;;;8.70;;
16352;SDS011;8286;51.274;9.542;2023-08-20T04:57:53;14.68;;;8.50;;
16352;SDS011;8286;51.274;9.542;2023-08-20T05:00:21;12.10;;;8.75;;
16352;SDS011;8286;51.274;9.542;2023-08-20T05:02:48;11.75;;;8.00;;
16352;SDS011;8286;51.274;9.542;2023-08-20T05:05:14;13.25;;;9.52;;
16352;SDS011;8286;51.274;9.542;2023-08-20T05:07:41;16.23;;;10.18;;
16352;SDS011;8286;51.274;9.542;2023-08-20T05:10:08;13.38;;;9.25;;
16352;SDS011;8286;51.274;9.542;2023-08-20T05:12:36;14.32;;;10.23;;
16352;SDS011;8286;51.274;9.542;2023-08-20T05:15:03;15.10;;;9.25;;
16352;SDS011;8286;51.274;9.542;2023-08-20T05:17:30;11.95;;;10.55;;
16352;SDS011;8286;51.274;9.542;2023-08-20T05:19:56;11.05;;;8.80;;
16352;SDS011;8286;51.274;9.542;2023-08-20T05:22:23;12.70;;;10.10;;
16352;SDS011;8286;51.274;9.542;2023-08-20T05:24:49;11.85;;;9.40;;
16352;SDS011;8286;51.274;9.542;2023-08-20T05:27:16;11.23;;;8.30;;
16352;SDS011;8286;51.274;9.542;2023-08-20T05:29:44;12.70;;;8.80;;
16352;SDS011;8286;51.274;9.542;2023-08-20T05:32:11;15.00;;;8.98;;
16352;SDS011;8286;51.274;9.542;2023-08-20T05:34:38;12.07;;;9.20;;
16352;SDS011;8286;51.274;9.542;2023-08-20T05:37:04;13.60;;;9.38;;
16352;SDS011;8286;51.274;9.542;2023-08-20T05:39:35;12.90;;;8.52;;
16352;SDS011;8286;51.274;9.542;2023-08-20T05:42:03;12.82;;;9.60;;
16352;SDS011;8286;51.274;9.542;2023-08-20T05:44:30;12.43;;;9.30;;
16352;SDS011;8286;51.274;9.542;2023-08-20T05:46:58;15.88;;;10.10;;
16352;SDS011;8286;51.274;9.542;2023-08-20T05:49:26;11.20;;;9.68;;
16352;SDS011;8286;51.274;9.542;2023-08-20T05:51:52;13.55;;;10.07;;
16352;SDS011;8286;51.274;9.542;2023-08-20T05:54:19;15.63;;;11.45;;
16352;SDS011;8286;51.274;9.542;2023-08-20T05:56:45;15.23;;;10.50;;
16352;SDS011;8286;51.274;9.542;2023-08-20T05:59:12;14.02;;;10.52;;
16352;SDS011;8286;51.274;9.542;2023-08-20T06:01:38;14.20;;;10.02;;
16352;SDS011;8286;51.274;9.542;2023-08-20T06:04:06;14.15;;;11.52;;
16352;SDS011;8286;51.274;9.542;2023-08-20T06:06:33;18.60;;;10.38;;
16352;SDS011;8286;51.274;9.542;2023-08-20T06:08:59;16.88;;;10.15;;
16352;SDS011;8286;51.274;9.542;2023-08-20T06:11:26;14.57;;;10.05;;
16352;SDS011;8286;51.274;9.542;2023-08-20T06:13:52;14.32;;;10.40;;
16352;SDS011;8286;51.274;9.542;2023-08-20T06:16:19;14.35;;;10.15;;
16352;SDS011;8286;51.274;9.542;2023-08-20T06:18:45;17.38;;;11.35;;
16352;SDS011;8286;51.274;9.542;2023-08-20T06:21:13;16.67;;;11.77;;
16352;SDS011;8286;51.274;9.542;2023-08-20T06:23:40;15.15;;;11.80;;
16352;SDS011;8286;51.274;9.542;2023-08-20T06:26:07;19.50;;;13.43;;
16352;SDS011;8286;51.274;9.542;2023-08-20T06:28:34;19.80;;;12.60;;
16352;SDS011;8286;51.274;9.542;2023-08-20T06:31:00;16.98;;;11.02;;
16352;SDS011;8286;51.274;9.542;2023-08-20T06:33:27;13.73;;;10.05;;
16352;SDS011;8286;51.274;9.542;2023-08-20T06:35:53;16.17;;;12.15;;
16352;SDS011;8286;51.274;9.542;2023-08-20T06:38:21;15.80;;;11.13;;
16352;SDS011;8286;51.274;9.542;2023-08-20T06:40:47;15.15;;;11.15;;
16352;SDS011;8286;51.274;9.542;2023-08-20T06:43:14;15.10;;;11.35;;
16352;SDS011;8286;51.274;9.542;2023-08-20T06:45:40;16.60;;;10.75;;
16352;SDS011;8286;51.274;9.542;2023-08-20T06:48:07;15.65;;;11.23;;
16352;SDS011;8286;51.274;9.542;2023-08-20T06:50:33;15.63;;;12.40;;
16352;SDS011;8286;51.274;9.542;2023-08-20T06:53:00;14.90;;;10.95;;
16352;SDS011;8286;51.274;9.542;2023-08-20T06:55:27;12.32;;;10.65;;
16352;SDS011;8286;51.274;9.542;2023-08-20T06:57:54;14.93;;;11.02;;
16352;SDS011;8286;51.274;9.542;2023-08-20T07:00:20;16.67;;;11.40;;
16352;SDS011;8286;51.274;9.542;2023-08-20T07:02:47;14.93;;;12.38;;
16352;SDS011;8286;51.274;9.542;2023-08-20T07:05:13;12.40;;;10.48;;
16352;SDS011;8286;51.274;9.542;2023-08-20T07:07:41;12.35;;;10.80;;
16352;SDS011;8286;51.274;9.542;2023-08-20T07:10:07;12.85;;;10.77;;
16352;SDS011;8286;51.274;9.542;2023-08-20T07:12:35;13.00;;;9.15;;
16352;SDS011;8286;51.274;9.542;2023-08-20T07:15:02;13.75;;;10.32;;
16352;SDS011;8286;51.274;9.542;2023-08-20T07:17:29;13.60;;;10.82;;
16352;SDS011;8286;51.274;9.542;2023-08-20T07:19:55;14.65;;;10.80;;
16352;SDS011;8286;51.274;9.542;2023-08-20T07:22:21;16.73;;;11.27;;
16352;SDS011;8286;51.274;9.542;2023-08-20T07:24:48;14.30;;;11.68;;
16352;SDS011;8286;51.274;9.542;2023-08-20T07:27:13;16.10;;;11.95;;
16352;SDS011;8286;51.274;9.542;2023-08-20T07:29:41;14.52;;;10.88;;
16352;SDS011;8286;51.274;9.542;2023-08-20T07:32:08;16.58;;;12.10;;
16352;SDS011;8286;51.274;9.542;2023-08-20T07:34:35;12.70;;;10.52;;
16352;SDS011;8286;51.274;9.542;2023-08-20T07:37:01;16.88;;;11.98;;
16352;SDS011;8286;51.274;9.542;2023-08-20T07:39:30;17.38;;;11.63;;
16352;SDS011;8286;51.274;9.542;2023-08-20T07:41:56;14.18;;;10.13;;
16352;SDS011;8286;51.274;9.542;2023-08-20T07:44:22;16.10;;;11.95;;
16352;SDS011;8286;51.274;9.542;2023-08-20T07:46:50;13.25;;;9.65;;
16352;SDS011;8286;51.274;9.542;2023-08-20T07:49:17;13.02;;;8.70;;
16352;SDS011;8286;51.274;9.542;2023-08-20T07:51:43;12.30;;;11.00;;
16352;SDS011;8286;51.274;9.542;2023-08-20T07:54:10;10.27;;;8.88;;
16352;SDS011;8286;51.274;9.542;2023-08-20T07:56:36;11.13;;;9.10;;
16352;SDS011;8286;51.274;9.542;2023-08-20T07:59:03;11.18;;;8.65;;
16352;SDS011;8286;51.274;9.542;2023-08-20T08:01:29;12.13;;;8.63;;
16352;SDS011;8286;51.274;9.542;2023-08-20T08:03:57;11.93;;;7.85;;
16352;SDS011;8286;51.274;9.542;2023-08-20T08:06:23;8.95;;;8.05;;
16352;SDS011;8286;51.274;9.542;2023-08-20T08:08:50;10.85;;;9.73;;
16352;SDS011;8286;51.274;9.542;2023-08-20T08:11:16;12.60;;;8.80;;
16352;SDS011;8286;51.274;9.542;2023-08-20T08:13:43;10.43;;;9.35;;
16352;SDS011;8286;51.274;9.542;2023-08-20T08:16:09;11.13;;;7.95;;
16352;SDS011;8286;51.274;9.542;2023-08-20T08:18:36;8.43;;;7.63;;
16352;SDS011;8286;51.274;9.542;2023-08-20T08:21:04;8.70;;;7.90;;
16352;SDS011;8286;51.274;9.542;2023-08-20T08:23:30;9.55;;;8.50;;
16352;SDS011;8286;51.274;9.542;2023-08-20T08:25:57;9.07;;;7.30;;
16352;SDS011;8286;51.274;9.542;2023-08-20T08:28:23;12.05;;;8.23;;
16352;SDS011;8286;51.274;9.542;2023-08-20T08:30:49;9.57;;;7.78;;
16352;SDS011;8286;51.274;9.542;2023-08-20T08:33:16;10.95;;;8.90;;
16352;SDS011;8286;51.274;9.542;2023-08-20T08:35:42;9.50;;;8.05;;
16352;SDS011;8286;51.274;9.542;2023-08-20T08:38:10;12.75;;;7.78;;
16352;SDS011;8286;51.274;9.542;2023-08-20T08:40:37;9.30;;;7.68;;
16352;SDS011;8286;51.274;9.542;2023-08-20T08:43:04;8.63;;;6.50;;
16352;SDS011;8286;51.274;9.542;2023-08-20T08:45:32;9.18;;;7.18;;
16352;SDS011;8286;51.274;9.542;2023-08-20T08:47:59;7.40;;;6.68;;
16352;SDS011;8286;51.274;9.542;2023-08-20T08:50:28;10.18;;;7.45;;
16352;SDS011;8286;51.274;9.542;2023-08-20T08:52:55;7.25;;;6.55;;
16352;SDS011;8286;51.274;9.542;2023-08-20T08:55:23;8.10;;;7.22;;
16352;SDS011;8286;51.274;9.542;2023-08-20T08:57:49;7.15;;;6.05;;
16352;SDS011;8286;51.274;9.542;2023-08-20T09:00:16;7.95;;;7.15;;
16352;SDS011;8286;51.274;9.542;2023-08-20T09:02:42;9.10;;;6.93;;
16352;SDS011;8286;51.274;9.542;2023-08-20T09:05:09;7.35;;;6.25;;
16352;SDS011;8286;51.274;9.542;2023-08-20T09:07:36;9.60;;;7.05;;
16352;SDS011;8286;51.274;9.542;2023-08-20T09:10:08;6.63;;;5.90;;
16352;SDS011;8286;51.274;9.542;2023-08-20T09:12:36;7.35;;;5.65;;
16352;SDS011;8286;51.274;9.542;2023-08-20T09:15:02;7.28;;;6.57;;
16352;SDS011;8286;51.274;9.542;2023-08-20T09:17:29;7.20;;;6.35;;
16352;SDS011;8286;51.274;9.542;2023-08-20T09:19:56;7.70;;;7.00;;
16352;SDS011;8286;51.274;9.542;2023-08-20T09:22:23;6.78;;;5.72;;
16352;SDS011;8286;51.274;9.542;2023-08-20T09:24:53;6.50;;;5.80;;
16352;SDS011;8286;51.274;9.542;2023-08-20T09:27:19;6.57;;;5.97;;
16352;SDS011;8286;51.274;9.542;2023-08-20T09:29:48;7.75;;;6.80;;
16352;SDS011;8286;51.274;9.542;2023-08-20T09:32:15;10.75;;;6.88;;
16352;SDS011;8286;51.274;9.542;2023-08-20T09:34:42;6.45;;;5.85;;
16352;SDS011;8286;51.274;9.542;2023-08-20T09:37:09;5.97;;;5.47;;
16352;SDS011;8286;51.274;9.542;2023-08-20T09:39:36;8.27;;;6.35;;
16352;SDS011;8286;51.274;9.542;2023-08-20T09:42:03;5.88;;;5.28;;
16352;SDS011;8286;51.274;9.542;2023-08-20T09:44:32;5.95;;;5.45;;
16352;SDS011;8286;51.274;9.542;2023-08-20T09:47:01;6.00;;;5.40;;
16352;SDS011;8286;51.274;9.542;2023-08-20T09:49:30;5.85;;;5.30;;
16352;SDS011;8286;51.274;9.542;2023-08-20T09:51:58;5.88;;;5.28;;
16352;SDS011;8286;51.274;9.542;2023-08-20T09:54:27;5.60;;;5.18;;
16352;SDS011;8286;51.274;9.542;2023-08-20T09:57:00;6.13;;;5.32;;
16352;SDS011;8286;51.274;9.542;2023-08-20T09:59:27;6.40;;;5.28;;
16352;SDS011;8286;51.274;9.542;2023-08-20T10:01:54;6.28;;;5.13;;
16352;SDS011;8286;51.274;9.542;2023-08-20T10:04:23;5.68;;;5.18;;
16352;SDS011;8286;51.274;9.542;2023-08-20T10:06:50;5.75;;;5.25;;
16352;SDS011;8286;51.274;9.542;2023-08-20T10:09:19;6.15;;;5.65;;
16352;SDS011;8286;51.274;9.542;2023-08-20T10:11:46;6.28;;;5.68;;
16352;SDS011;8286;51.274;9.542;2023-08-20T10:14:13;5.28;;;4.88;;
16352;SDS011;8286;51.274;9.542;2023-08-20T10:16:39;7.05;;;5.20;;
16352;SDS011;8286;51.274;9.542;2023-08-20T10:19:06;5.78;;;5.25;;
16352;SDS011;8286;51.274;9.542;2023-08-20T10:21:34;4.90;;;4.53;;
16352;SDS011;8286;51.274;9.542;2023-08-20T10:24:02;5.25;;;4.78;;
16352;SDS011;8286;51.274;9.542;2023-08-20T10:26:29;5.78;;;5.28;;
16352;SDS011;8286;51.274;9.542;2023-08-20T10:31:56;5.88;;;5.47;;
16352;SDS011;8286;51.274;9.542;2023-08-20T10:34:31;6.65;;;5.40;;
16352;SDS011;8286;51.274;9.542;2023-08-20T10:37:02;5.65;;;5.07;;
16352;SDS011;8286;51.274;9.542;2023-08-20T10:39:29;5.30;;;4.95;;
16352;SDS011;8286;51.274;9.542;2023-08-20T10:42:07;5.32;;;4.90;;
16352;SDS011;8286;51.274;9.542;2023-08-20T10:47:25;5.28;;;4.90;;
16352;SDS011;8286;51.274;9.542;2023-08-20T10:49:52;5.38;;;5.00;;
16352;SDS011;8286;51.274;9.542;2023-08-20T10:52:20;5.32;;;4.93;;
16352;SDS011;8286;51.274;9.542;2023-08-20T10:54:49;4.90;;;4.60;;
16352;SDS011;8286;51.274;9.542;2023-08-20T10:57:16;5.00;;;4.60;;
16352;SDS011;8286;51.274;9.542;2023-08-20T10:59:51;5.38;;;4.88;;
16352;SDS011;8286;51.274;9.542;2023-08-20T11:02:22;5.70;;;5.20;;
16352;SDS011;8286;51.274;9.542;2023-08-20T11:04:49;5.15;;;4.75;;
16352;SDS011;8286;51.274;9.542;2023-08-20T11:07:16;5.63;;;5.13;;
16352;SDS011;8286;51.274;9.542;2023-08-20T11:09:45;5.20;;;4.80;;
16352;SDS011;8286;51.274;9.542;2023-08-20T11:12:14;6.30;;;4.68;;
16352;SDS011;8286;51.274;9.542;2023-08-20T11:14:40;5.10;;;4.68;;
16352;SDS011;8286;51.274;9.542;2023-08-20T11:17:07;4.78;;;4.38;;
16352;SDS011;8286;51.274;9.542;2023-08-20T11:19:34;5.47;;;4.97;;
16352;SDS011;8286;51.274;9.542;2023-08-20T11:22:01;5.20;;;4.70;;
16352;SDS011;8286;51.274;9.542;2023-08-20T11:24:28;5.88;;;5.05;;
16352;SDS011;8286;51.274;9.542;2023-08-20T11:26:56;4.90;;;4.60;;
16352;SDS011;8286;51.274;9.542;2023-08-20T11:29:25;5.18;;;4.72;;
16352;SDS011;8286;51.274;9.542;2023-08-20T11:31:52;5.15;;;4.82;;
16352;SDS011;8286;51.274;9.542;2023-08-20T11:34:18;7.07;;;5.20;;
16352;SDS011;8286;51.274;9.542;2023-08-20T11:36:45;5.15;;;4.82;;
16352;SDS011;8286;51.274;9.542;2023-08-20T11:39:13;5.25;;;4.75;;
16352;SDS011;8286;51.274;9.542;2023-08-20T11:41:39;5.97;;;5.45;;
16352;SDS011;8286;51.274;9.542;2023-08-20T11:44:09;5.10;;;4.70;;
16352;SDS011;8286;51.274;9.542;2023-08-20T11:46:42;5.28;;;4.93;;
16352;SDS011;8286;51.274;9.542;2023-08-20T11:49:09;5.72;;;5.30;;
16352;SDS011;8286;51.274;9.542;2023-08-20T11:51:36;6.53;;;5.03;;
16352;SDS011;8286;51.274;9.542;2023-08-20T11:54:04;5.03;;;4.63;;
16352;SDS011;8286;51.274;9.542;2023-08-20T11:56:32;5.03;;;4.53;;
16352;SDS011;8286;51.274;9.542;2023-08-20T11:58:59;4.80;;;4.40;;
16352;SDS011;8286;51.274;9.542;2023-08-20T12:01:27;4.75;;;4.38;;
16352;SDS011;8286;51.274;9.542;2023-08-20T12:03:58;5.50;;;5.00;;
16352;SDS011;8286;51.274;9.542;2023-08-20T12:06:26;4.90;;;4.38;;
16352;SDS011;8286;51.274;9.542;2023-08-20T12:08:55;5.50;;;5.00;;
16352;SDS011;8286;51.274;9.542;2023-08-20T12:11:23;4.78;;;4.38;;
16352;SDS011;8286;51.274;9.542;2023-08-20T12:13:50;4.70;;;4.30;;
16352;SDS011;8286;51.274;9.542;2023-08-20T12:16:16;4.50;;;4.20;;
16352;SDS011;8286;51.274;9.542;2023-08-20T12:18:46;4.65;;;4.25;;
16352;SDS011;8286;51.274;9.542;2023-08-20T12:21:13;4.20;;;3.80;;
16352;SDS011;8286;51.274;9.542;2023-08-20T12:23:39;4.72;;;4.03;;
16352;SDS011;8286;51.274;9.542;2023-08-20T12:26:06;4.00;;;3.70;;
16352;SDS011;8286;51.274;9.542;2023-08-20T12:28:32;5.22;;;4.05;;
16352;SDS011;8286;51.274;9.542;2023-08-20T12:30:59;4.20;;;3.90;;
16352;SDS011;8286;51.274;9.542;2023-08-20T12:33:25;5.32;;;4.00;;
16352;SDS011;8286;51.274;9.542;2023-08-20T12:35:55;6.53;;;3.47;;
16352;SDS011;8286;51.274;9.542;2023-08-20T12:38:21;6.05;;;3.92;;
16352;SDS011;8286;51.274;9.542;2023-08-20T12:40:48;3.90;;;3.67;;
16352;SDS011;8286;51.274;9.542;2023-08-20T12:43:15;4.45;;;4.05;;
16352;SDS011;8286;51.274;9.542;2023-08-20T12:45:41;5.22;;;4.70;;
16352;SDS011;8286;51.274;9.542;2023-08-20T12:48:08;4.60;;;4.20;;
16352;SDS011;8286;51.274;9.542;2023-08-20T12:50:34;4.80;;;3.83;;
16352;SDS011;8286;51.274;9.542;2023-08-20T12:53:02;3.60;;;3.30;;
16352;SDS011;8286;51.274;9.542;2023-08-20T12:55:29;3.88;;;3.45;;
16352;SDS011;8286;51.274;9.542;2023-08-20T12:57:55;4.22;;;3.85;;
16352;SDS011;8286;51.274;9.542;2023-08-20T13:00:23;4.10;;;3.80;;
16352;SDS011;8286;51.274;9.542;2023-08-20T13:02:51;5.82;;;3.95;;
16352;SDS011;8286;51.274;9.542;2023-08-20T13:05:18;5.78;;;3.90;;
16352;SDS011;8286;51.274;9.542;2023-08-20T13:07:46;4.25;;;3.85;;
16352;SDS011;8286;51.274;9.542;2023-08-20T13:10:14;4.20;;;3.90;;
16352;SDS011;8286;51.274;9.542;2023-08-20T13:12:41;4.55;;;4.25;;
16352;SDS011;8286;51.274;9.542;2023-08-20T13:15:13;4.30;;;4.00;;
16352;SDS011;8286;51.274;9.542;2023-08-20T13:17:41;4.75;;;4.35;;
16352;SDS011;8286;51.274;9.542;2023-08-20T13:20:08;4.90;;;4.50;;
16352;SDS011;8286;51.274;9.542;2023-08-20T13:22:36;5.40;;;4.68;;
16352;SDS011;8286;51.274;9.542;2023-08-20T13:25:02;7.28;;;5.30;;
16352;SDS011;8286;51.274;9.542;2023-08-20T13:27:31;5.00;;;4.38;;
16352;SDS011;8286;51.274;9.542;2023-08-20T13:29:57;5.28;;;4.80;;
16352;SDS011;8286;51.274;9.542;2023-08-20T13:32:24;4.85;;;4.38;;
16352;SDS011;8286;51.274;9.542;2023-08-20T13:34:50;4.93;;;4.53;;
16352;SDS011;8286;51.274;9.542;2023-08-20T13:37:17;11.50;;;4.40;;
16352;SDS011;8286;51.274;9.542;2023-08-20T13:39:44;4.93;;;4.50;;
16352;SDS011;8286;51.274;9.542;2023-08-20T13:42:10;5.32;;;4.78;;
16352;SDS011;8286;51.274;9.542;2023-08-20T13:44:38;5.22;;;4.68;;
16352;SDS011;8286;51.274;9.542;2023-08-20T13:47:04;5.47;;;4.97;;
16352;SDS011;8286;51.274;9.542;2023-08-20T13:49:31;4.82;;;4.43;;
16352;SDS011;8286;51.274;9.542;2023-08-20T13:51:57;6.13;;;4.10;;
16352;SDS011;8286;51.274;9.542;2023-08-20T13:54:24;5.03;;;4.60;;
16352;SDS011;8286;51.274;9.542;2023-08-20T13:56:51;5.95;;;4.15;;
16352;SDS011;8286;51.274;9.542;2023-08-20T13:59:17;4.22;;;3.88;;
16352;SDS011;8286;51.274;9.542;2023-08-20T14:01:45;4.10;;;3.80;;
16352;SDS011;8286;51.274;9.542;2023-08-20T14:04:13;4.13;;;3.75;;
16352;SDS011;8286;51.274;9.542;2023-08-20T14:06:39;6.30;;;4.40;;
16352;SDS011;8286;51.274;9.542;2023-08-20T14:09:06;4.57;;;4.18;;
16352;SDS011;8286;51.274;9.542;2023-08-20T14:11:33;5.00;;;4.60;;
16352;SDS011;8286;51.274;9.542;2023-08-20T14:13:59;6.28;;;4.13;;
16352;SDS011;8286;51.274;9.542;2023-08-20T14:16:26;4.82;;;4.32;;
16352;SDS011;8286;51.274;9.542;2023-08-20T14:18:54;4.95;;;4.45;;
16352;SDS011;8286;51.274;9.542;2023-08-20T14:21:21;5.65;;;5.05;;
16352;SDS011;8286;51.274;9.542;2023-08-20T14:23:48;4.75;;;4.18;;
16352;SDS011;8286;51.274;9.542;2023-08-20T14:26:14;4.55;;;4.15;;
16352;SDS011;8286;51.274;9.542;2023-08-20T14:28:41;7.10;;;4.40;;
16352;SDS011;8286;51.274;9.542;2023-08-20T14:31:08;4.63;;;4.22;;
16352;SDS011;8286;51.274;9.542;2023-08-20T14:33:35;4.95;;;4.55;;
16352;SDS011;8286;51.274;9.542;2023-08-20T14:36:03;4.72;;;4.25;;
16352;SDS011;8286;51.274;9.542;2023-08-20T14:38:30;4.65;;;4.18;;
16352;SDS011;8286;51.274;9.542;2023-08-20T14:40:59;4.78;;;4.40;;
16352;SDS011;8286;51.274;9.542;2023-08-20T14:43:25;4.57;;;4.15;;
16352;SDS011;8286;51.274;9.542;2023-08-20T14:45:52;5.13;;;4.70;;
16352;SDS011;8286;51.274;9.542;2023-08-20T14:48:19;4.60;;;4.20;;
16352;SDS011;8286;51.274;9.542;2023-08-20T14:50:45;5.43;;;4.68;;
16352;SDS011;8286;51.274;9.542;2023-08-20T14:53:14;5.82;;;4.80;;
16352;SDS011;8286;51.274;9.542;2023-08-20T14:55:40;5.45;;;4.43;;
16352;SDS011;8286;51.274;9.542;2023-08-20T14:58:07;5.20;;;4.15;;
16352;SDS011;8286;51.274;9.542;2023-08-20T15:00:34;4.97;;;4.57;;